Cliffdell, Washington
Current Conditions -  °F | °C
As of 6:53 PM on Monday 22 Dec 2014 (Local Time) from KYKM Reporting Station
Broken Clouds Broken Clouds  
Wind Chill:   Ceiling: 12000
Heat Index:   Visibility: 10mi
Dew Point: -1°   Wind: 0mph
Humidity: 58%   Direction: NA
Pressure: 30.33"   Gusts: NA
Location:  46.6628°N, 121.193°W
Report Text: KYKM 230253Z 00000KT 10SM BKN120 07/M01 A3033 RMK AO2 SLP277 T00671011 51010
Loading
Personal Weather Stations






























Interactive Weather Map New forecast layout! Learn more

10-Day Weather Forecast

Advertisements
Track Severe Weather on mobile